sensor_id;sensor_type;location;lat;lon;timestamp;temperature;humidity
66190;DHT22;52992;52.084;5.412;2024-02-04T00:00:36;14.20;75.20
66190;DHT22;52992;52.084;5.412;2024-02-04T00:03:04;14.20;75.40
66190;DHT22;52992;52.084;5.412;2024-02-04T00:05:31;14.20;75.30
66190;DHT22;52992;52.084;5.412;2024-02-04T00:07:58;14.10;75.50
66190;DHT22;52992;52.084;5.412;2024-02-04T00:10:25;14.10;75.70
66190;DHT22;52992;52.084;5.412;2024-02-04T00:12:53;14.10;76.20
66190;DHT22;52992;52.084;5.412;2024-02-04T00:15:20;14.10;76.10
66190;DHT22;52992;52.084;5.412;2024-02-04T00:17:47;14.10;76.30
66190;DHT22;52992;52.084;5.412;2024-02-04T00:20:14;14.10;76.40
66190;DHT22;52992;52.084;5.412;2024-02-04T00:22:41;14.10;76.30
66190;DHT22;52992;52.084;5.412;2024-02-04T00:25:08;14.10;76.60
66190;DHT22;52992;52.084;5.412;2024-02-04T00:27:38;14.20;76.40
66190;DHT22;52992;52.084;5.412;2024-02-04T00:30:06;14.20;76.80
66190;DHT22;52992;52.084;5.412;2024-02-04T00:32:33;14.30;77.30
66190;DHT22;52992;52.084;5.412;2024-02-04T00:35:00;14.30;76.10
66190;DHT22;52992;52.084;5.412;2024-02-04T00:37:27;14.30;76.20
66190;DHT22;52992;52.084;5.412;2024-02-04T00:39:54;14.30;76.50
66190;DHT22;52992;52.084;5.412;2024-02-04T00:42:21;14.20;76.40
66190;DHT22;52992;52.084;5.412;2024-02-04T00:44:48;14.20;76.90
66190;DHT22;52992;52.084;5.412;2024-02-04T00:47:15;14.20;77.10
66190;DHT22;52992;52.084;5.412;2024-02-04T00:49:42;14.30;77.20
66190;DHT22;52992;52.084;5.412;2024-02-04T00:52:09;14.30;77.30
66190;DHT22;52992;52.084;5.412;2024-02-04T00:54:36;14.30;77.40
66190;DHT22;52992;52.084;5.412;2024-02-04T00:57:03;14.30;77.40
66190;DHT22;52992;52.084;5.412;2024-02-04T00:59:30;14.30;78.20
66190;DHT22;52992;52.084;5.412;2024-02-04T01:01:57;14.30;77.50
66190;DHT22;52992;52.084;5.412;2024-02-04T01:04:25;14.30;77.30
66190;DHT22;52992;52.084;5.412;2024-02-04T01:06:52;14.20;77.50
66190;DHT22;52992;52.084;5.412;2024-02-04T01:09:28;14.20;77.60
66190;DHT22;52992;52.084;5.412;2024-02-04T01:11:55;14.10;77.90
66190;DHT22;52992;52.084;5.412;2024-02-04T01:14:23;14.20;77.90
66190;DHT22;52992;52.084;5.412;2024-02-04T01:16:50;14.10;77.90
66190;DHT22;52992;52.084;5.412;2024-02-04T01:19:17;14.20;77.80
66190;DHT22;52992;52.084;5.412;2024-02-04T01:21:44;14.10;78.00
66190;DHT22;52992;52.084;5.412;2024-02-04T01:24:11;14.10;78.30
66190;DHT22;52992;52.084;5.412;2024-02-04T01:26:38;14.10;78.20
66190;DHT22;52992;52.084;5.412;2024-02-04T01:29:07;14.20;78.10
66190;DHT22;52992;52.084;5.412;2024-02-04T01:31:34;14.10;77.90
66190;DHT22;52992;52.084;5.412;2024-02-04T01:34:01;14.20;78.00
66190;DHT22;52992;52.084;5.412;2024-02-04T01:36:28;14.10;78.10
66190;DHT22;52992;52.084;5.412;2024-02-04T01:38:56;14.10;78.40
66190;DHT22;52992;52.084;5.412;2024-02-04T01:41:23;14.10;78.40
66190;DHT22;52992;52.084;5.412;2024-02-04T01:43:53;14.10;78.20
66190;DHT22;52992;52.084;5.412;2024-02-04T01:46:21;14.10;78.00
66190;DHT22;52992;52.084;5.412;2024-02-04T01:48:48;14.10;77.80
66190;DHT22;52992;52.084;5.412;2024-02-04T01:51:16;14.00;77.90
66190;DHT22;52992;52.084;5.412;2024-02-04T01:53:44;14.10;78.40
66190;DHT22;52992;52.084;5.412;2024-02-04T01:56:13;14.10;78.30
66190;DHT22;52992;52.084;5.412;2024-02-04T01:58:40;14.10;77.90
66190;DHT22;52992;52.084;5.412;2024-02-04T02:01:08;14.10;77.70
66190;DHT22;52992;52.084;5.412;2024-02-04T02:03:36;14.00;77.90
66190;DHT22;52992;52.084;5.412;2024-02-04T02:06:05;14.00;77.70
66190;DHT22;52992;52.084;5.412;2024-02-04T02:08:33;14.00;77.80
66190;DHT22;52992;52.084;5.412;2024-02-04T02:11:16;14.00;77.70
66190;DHT22;52992;52.084;5.412;2024-02-04T02:13:50;14.00;77.60
66190;DHT22;52992;52.084;5.412;2024-02-04T02:16:24;14.00;78.20
66190;DHT22;52992;52.084;5.412;2024-02-04T02:19:11;13.90;77.50
66190;DHT22;52992;52.084;5.412;2024-02-04T02:21:52;13.90;77.70
66190;DHT22;52992;52.084;5.412;2024-02-04T02:26:50;13.90;77.40
66190;DHT22;52992;52.084;5.412;2024-02-04T02:29:17;13.80;77.00
66190;DHT22;52992;52.084;5.412;2024-02-04T02:31:45;13.80;77.20
66190;DHT22;52992;52.084;5.412;2024-02-04T02:34:15;13.80;77.50
66190;DHT22;52992;52.084;5.412;2024-02-04T02:43:03;13.70;77.80
66190;DHT22;52992;52.084;5.412;2024-02-04T02:45:31;13.70;77.60
66190;DHT22;52992;52.084;5.412;2024-02-04T02:47:59;13.80;78.00
66190;DHT22;52992;52.084;5.412;2024-02-04T02:50:27;13.80;77.90
66190;DHT22;52992;52.084;5.412;2024-02-04T02:52:55;13.80;77.50
66190;DHT22;52992;52.084;5.412;2024-02-04T02:55:22;13.90;77.60
66190;DHT22;52992;52.084;5.412;2024-02-04T02:57:49;14.00;77.30
66190;DHT22;52992;52.084;5.412;2024-02-04T03:00:16;14.00;77.00
66190;DHT22;52992;52.084;5.412;2024-02-04T03:02:43;14.00;76.60
66190;DHT22;52992;52.084;5.412;2024-02-04T03:05:10;14.00;76.80
66190;DHT22;52992;52.084;5.412;2024-02-04T03:07:38;13.90;77.00
66190;DHT22;52992;52.084;5.412;2024-02-04T03:10:05;13.80;77.80
66190;DHT22;52992;52.084;5.412;2024-02-04T03:12:32;13.80;77.40
66190;DHT22;52992;52.084;5.412;2024-02-04T03:14:59;13.80;77.50
66190;DHT22;52992;52.084;5.412;2024-02-04T03:17:26;13.80;77.50
66190;DHT22;52992;52.084;5.412;2024-02-04T03:19:53;13.70;77.20
66190;DHT22;52992;52.084;5.412;2024-02-04T03:22:23;13.70;77.70
66190;DHT22;52992;52.084;5.412;2024-02-04T03:24:50;13.70;77.60
66190;DHT22;52992;52.084;5.412;2024-02-04T03:27:18;13.70;77.60
66190;DHT22;52992;52.084;5.412;2024-02-04T03:29:46;13.70;77.50
66190;DHT22;52992;52.084;5.412;2024-02-04T03:32:13;13.70;77.40
66190;DHT22;52992;52.084;5.412;2024-02-04T03:34:43;13.80;76.80
66190;DHT22;52992;52.084;5.412;2024-02-04T03:37:11;13.70;76.50
66190;DHT22;52992;52.084;5.412;2024-02-04T03:39:38;13.70;76.40
66190;DHT22;52992;52.084;5.412;2024-02-04T03:42:05;13.70;76.40
66190;DHT22;52992;52.084;5.412;2024-02-04T03:44:32;13.60;76.40
66190;DHT22;52992;52.084;5.412;2024-02-04T03:46:59;13.60;76.30
66190;DHT22;52992;52.084;5.412;2024-02-04T03:49:26;13.60;76.20
66190;DHT22;52992;52.084;5.412;2024-02-04T03:51:53;13.50;76.10
66190;DHT22;52992;52.084;5.412;2024-02-04T03:54:20;13.60;75.90
66190;DHT22;52992;52.084;5.412;2024-02-04T03:56:47;13.50;75.90
66190;DHT22;52992;52.084;5.412;2024-02-04T03:59:14;13.50;76.10
66190;DHT22;52992;52.084;5.412;2024-02-04T04:01:46;13.50;75.50
66190;DHT22;52992;52.084;5.412;2024-02-04T04:04:13;13.60;75.50
66190;DHT22;52992;52.084;5.412;2024-02-04T04:06:40;13.50;75.30
66190;DHT22;52992;52.084;5.412;2024-02-04T04:09:08;13.50;75.40
66190;DHT22;52992;52.084;5.412;2024-02-04T04:11:35;13.60;75.20
66190;DHT22;52992;52.084;5.412;2024-02-04T04:14:02;13.70;74.90
66190;DHT22;52992;52.084;5.412;2024-02-04T04:16:29;13.70;74.80
66190;DHT22;52992;52.084;5.412;2024-02-04T04:18:55;13.70;74.70
66190;DHT22;52992;52.084;5.412;2024-02-04T04:21:22;13.70;74.70
66190;DHT22;52992;52.084;5.412;2024-02-04T04:23:49;13.70;74.70
66190;DHT22;52992;52.084;5.412;2024-02-04T04:26:16;13.60;74.40
66190;DHT22;52992;52.084;5.412;2024-02-04T04:28:43;13.60;74.80
66190;DHT22;52992;52.084;5.412;2024-02-04T04:31:10;13.60;74.40
66190;DHT22;52992;52.084;5.412;2024-02-04T04:33:37;13.60;74.40
66190;DHT22;52992;52.084;5.412;2024-02-04T04:36:04;13.60;74.50
66190;DHT22;52992;52.084;5.412;2024-02-04T04:38:31;13.60;74.20
66190;DHT22;52992;52.084;5.412;2024-02-04T04:40:58;13.50;74.40
66190;DHT22;52992;52.084;5.412;2024-02-04T04:43:25;13.60;74.20
66190;DHT22;52992;52.084;5.412;2024-02-04T04:45:53;13.60;74.30
66190;DHT22;52992;52.084;5.412;2024-02-04T04:48:20;13.50;74.20
66190;DHT22;52992;52.084;5.412;2024-02-04T04:50:47;13.60;74.20
66190;DHT22;52992;52.084;5.412;2024-02-04T04:53:14;13.60;73.90
66190;DHT22;52992;52.084;5.412;2024-02-04T04:55:41;13.50;73.80
66190;DHT22;52992;52.084;5.412;2024-02-04T04:58:08;13.50;73.60
66190;DHT22;52992;52.084;5.412;2024-02-04T05:00:34;13.40;73.70
66190;DHT22;52992;52.084;5.412;2024-02-04T05:03:02;13.40;73.70
66190;DHT22;52992;52.084;5.412;2024-02-04T05:05:29;13.40;73.60
66190;DHT22;52992;52.084;5.412;2024-02-04T05:07:56;13.40;73.60
66190;DHT22;52992;52.084;5.412;2024-02-04T05:10:23;13.40;73.70
66190;DHT22;52992;52.084;5.412;2024-02-04T05:12:50;13.40;73.70
66190;DHT22;52992;52.084;5.412;2024-02-04T05:15:17;13.50;73.50
66190;DHT22;52992;52.084;5.412;2024-02-04T05:17:44;13.50;73.30
66190;DHT22;52992;52.084;5.412;2024-02-04T05:20:11;13.40;73.30
66190;DHT22;52992;52.084;5.412;2024-02-04T05:22:38;13.50;73.40
66190;DHT22;52992;52.084;5.412;2024-02-04T05:25:05;13.50;73.30
66190;DHT22;52992;52.084;5.412;2024-02-04T05:27:33;13.50;73.20
66190;DHT22;52992;52.084;5.412;2024-02-04T05:30:02;13.50;73.20
66190;DHT22;52992;52.084;5.412;2024-02-04T05:32:29;13.40;73.30
66190;DHT22;52992;52.084;5.412;2024-02-04T05:34:56;13.50;73.50
66190;DHT22;52992;52.084;5.412;2024-02-04T05:37:23;13.50;73.40
66190;DHT22;52992;52.084;5.412;2024-02-04T05:39:50;13.50;73.20
66190;DHT22;52992;52.084;5.412;2024-02-04T05:42:17;13.50;73.20
66190;DHT22;52992;52.084;5.412;2024-02-04T05:44:44;13.50;73.30
66190;DHT22;52992;52.084;5.412;2024-02-04T05:47:11;13.40;73.20
66190;DHT22;52992;52.084;5.412;2024-02-04T05:49:37;13.40;73.10
66190;DHT22;52992;52.084;5.412;2024-02-04T05:52:05;13.40;73.20
66190;DHT22;52992;52.084;5.412;2024-02-04T05:54:36;13.50;73.10
66190;DHT22;52992;52.084;5.412;2024-02-04T05:57:03;13.50;73.00
66190;DHT22;52992;52.084;5.412;2024-02-04T05:59:31;13.50;73.00
66190;DHT22;52992;52.084;5.412;2024-02-04T06:01:58;13.50;72.90
66190;DHT22;52992;52.084;5.412;2024-02-04T06:04:25;13.50;72.90
66190;DHT22;52992;52.084;5.412;2024-02-04T06:06:52;13.50;72.80
66190;DHT22;52992;52.084;5.412;2024-02-04T06:09:19;13.40;72.80
66190;DHT22;52992;52.084;5.412;2024-02-04T06:11:46;13.50;73.00
66190;DHT22;52992;52.084;5.412;2024-02-04T06:14:15;13.50;72.70
66190;DHT22;52992;52.084;5.412;2024-02-04T06:16:42;13.50;72.80
66190;DHT22;52992;52.084;5.412;2024-02-04T06:19:09;13.50;72.90
66190;DHT22;52992;52.084;5.412;2024-02-04T06:21:39;13.50;72.80
66190;DHT22;52992;52.084;5.412;2024-02-04T06:24:06;13.60;72.50
66190;DHT22;52992;52.084;5.412;2024-02-04T06:26:37;13.60;72.20
66190;DHT22;52992;52.084;5.412;2024-02-04T06:29:04;13.70;72.20
66190;DHT22;52992;52.084;5.412;2024-02-04T06:31:31;13.60;72.20
66190;DHT22;52992;52.084;5.412;2024-02-04T06:33:58;13.60;72.40
66190;DHT22;52992;52.084;5.412;2024-02-04T06:36:25;13.60;72.40
66190;DHT22;52992;52.084;5.412;2024-02-04T06:38:53;13.60;72.70
66190;DHT22;52992;52.084;5.412;2024-02-04T06:41:19;13.60;73.60
66190;DHT22;52992;52.084;5.412;2024-02-04T06:43:46;13.60;73.00
66190;DHT22;52992;52.084;5.412;2024-02-04T06:46:13;13.50;73.10
66190;DHT22;52992;52.084;5.412;2024-02-04T06:48:40;13.50;73.40
66190;DHT22;52992;52.084;5.412;2024-02-04T06:51:07;13.50;73.70
66190;DHT22;52992;52.084;5.412;2024-02-04T06:53:34;13.40;73.90
66190;DHT22;52992;52.084;5.412;2024-02-04T06:56:01;13.40;74.10
66190;DHT22;52992;52.084;5.412;2024-02-04T06:58:28;13.40;74.20
66190;DHT22;52992;52.084;5.412;2024-02-04T07:00:55;13.40;74.50
66190;DHT22;52992;52.084;5.412;2024-02-04T07:03:22;13.40;74.50
66190;DHT22;52992;52.084;5.412;2024-02-04T07:05:49;13.40;74.70
66190;DHT22;52992;52.084;5.412;2024-02-04T07:08:15;13.40;74.80
66190;DHT22;52992;52.084;5.412;2024-02-04T07:10:42;13.40;74.80
66190;DHT22;52992;52.084;5.412;2024-02-04T07:13:09;13.40;74.70
66190;DHT22;52992;52.084;5.412;2024-02-04T07:15:38;13.50;74.80
66190;DHT22;52992;52.084;5.412;2024-02-04T07:18:05;13.50;74.70
66190;DHT22;52992;52.084;5.412;2024-02-04T07:20:32;13.40;74.70
66190;DHT22;52992;52.084;5.412;2024-02-04T07:22:59;13.50;75.00
66190;DHT22;52992;52.084;5.412;2024-02-04T07:25:26;13.40;75.10
66190;DHT22;52992;52.084;5.412;2024-02-04T07:27:53;13.50;75.30
66190;DHT22;52992;52.084;5.412;2024-02-04T07:30:20;13.50;75.30
66190;DHT22;52992;52.084;5.412;2024-02-04T07:32:47;13.50;75.20
66190;DHT22;52992;52.084;5.412;2024-02-04T07:35:14;13.50;75.10
66190;DHT22;52992;52.084;5.412;2024-02-04T07:37:41;13.50;74.80
66190;DHT22;52992;52.084;5.412;2024-02-04T07:40:08;13.60;74.90
66190;DHT22;52992;52.084;5.412;2024-02-04T07:42:35;13.60;74.70
66190;DHT22;52992;52.084;5.412;2024-02-04T07:45:02;13.60;74.60
66190;DHT22;52992;52.084;5.412;2024-02-04T07:47:36;13.60;74.40
66190;DHT22;52992;52.084;5.412;2024-02-04T07:50:03;13.70;74.50
66190;DHT22;52992;52.084;5.412;2024-02-04T07:52:30;13.70;74.60
66190;DHT22;52992;52.084;5.412;2024-02-04T07:54:57;13.70;74.40
66190;DHT22;52992;52.084;5.412;2024-02-04T07:57:24;13.60;74.20
66190;DHT22;52992;52.084;5.412;2024-02-04T07:59:51;13.60;73.90
66190;DHT22;52992;52.084;5.412;2024-02-04T08:02:19;13.60;74.00
66190;DHT22;52992;52.084;5.412;2024-02-04T08:04:46;13.60;74.00
66190;DHT22;52992;52.084;5.412;2024-02-04T08:07:13;13.60;73.80
66190;DHT22;52992;52.084;5.412;2024-02-04T08:09:40;13.70;73.80
66190;DHT22;52992;52.084;5.412;2024-02-04T08:12:07;13.70;73.60
66190;DHT22;52992;52.084;5.412;2024-02-04T08:14:34;13.70;73.20
66190;DHT22;52992;52.084;5.412;2024-02-04T08:17:01;13.70;73.00
66190;DHT22;52992;52.084;5.412;2024-02-04T08:19:28;13.80;73.20
66190;DHT22;52992;52.084;5.412;2024-02-04T08:21:55;13.80;72.70
66190;DHT22;52992;52.084;5.412;2024-02-04T08:24:22;13.80;72.90
66190;DHT22;52992;52.084;5.412;2024-02-04T08:26:49;13.80;72.90
66190;DHT22;52992;52.084;5.412;2024-02-04T08:29:16;13.80;72.90
66190;DHT22;52992;52.084;5.412;2024-02-04T08:31:43;13.80;72.40
66190;DHT22;52992;52.084;5.412;2024-02-04T08:34:10;13.80;72.60
66190;DHT22;52992;52.084;5.412;2024-02-04T08:36:37;13.90;72.70
66190;DHT22;52992;52.084;5.412;2024-02-04T08:39:04;13.90;72.60
66190;DHT22;52992;52.084;5.412;2024-02-04T08:41:31;13.90;72.60
66190;DHT22;52992;52.084;5.412;2024-02-04T08:43:58;13.90;72.30
66190;DHT22;52992;52.084;5.412;2024-02-04T08:46:29;13.80;72.30
66190;DHT22;52992;52.084;5.412;2024-02-04T08:48:56;13.80;72.10
66190;DHT22;52992;52.084;5.412;2024-02-04T08:51:23;13.80;72.30
66190;DHT22;52992;52.084;5.412;2024-02-04T08:53:52;13.80;72.30
66190;DHT22;52992;52.084;5.412;2024-02-04T08:56:18;13.80;72.20
66190;DHT22;52992;52.084;5.412;2024-02-04T08:58:46;13.80;72.50
66190;DHT22;52992;52.084;5.412;2024-02-04T09:01:12;13.80;72.60
66190;DHT22;52992;52.084;5.412;2024-02-04T09:03:39;13.80;72.70
66190;DHT22;52992;52.084;5.412;2024-02-04T09:06:06;13.90;72.70
66190;DHT22;52992;52.084;5.412;2024-02-04T09:08:33;13.80;72.50
66190;DHT22;52992;52.084;5.412;2024-02-04T09:11:00;13.80;72.80
66190;DHT22;52992;52.084;5.412;2024-02-04T09:13:27;13.80;72.90
66190;DHT22;52992;52.084;5.412;2024-02-04T09:15:54;13.90;73.10
66190;DHT22;52992;52.084;5.412;2024-02-04T09:18:21;13.90;72.90
66190;DHT22;52992;52.084;5.412;2024-02-04T09:20:48;13.90;72.70
66190;DHT22;52992;52.084;5.412;2024-02-04T09:23:16;13.90;72.70
66190;DHT22;52992;52.084;5.412;2024-02-04T09:25:43;13.90;72.90
66190;DHT22;52992;52.084;5.412;2024-02-04T09:28:10;14.00;73.00
66190;DHT22;52992;52.084;5.412;2024-02-04T09:30:37;14.10;72.90
66190;DHT22;52992;52.084;5.412;2024-02-04T09:33:04;14.10;72.70
66190;DHT22;52992;52.084;5.412;2024-02-04T09:35:31;14.10;72.80
66190;DHT22;52992;52.084;5.412;2024-02-04T09:37:59;14.20;72.60
66190;DHT22;52992;52.084;5.412;2024-02-04T09:40:26;14.20;72.50
66190;DHT22;52992;52.084;5.412;2024-02-04T09:42:53;14.30;72.60
66190;DHT22;52992;52.084;5.412;2024-02-04T09:45:21;14.20;73.30
66190;DHT22;52992;52.084;5.412;2024-02-04T09:47:49;14.30;72.70
66190;DHT22;52992;52.084;5.412;2024-02-04T09:50:16;14.30;72.40
66190;DHT22;52992;52.084;5.412;2024-02-04T09:52:50;14.40;72.40
66190;DHT22;52992;52.084;5.412;2024-02-04T09:55:20;14.40;72.40
66190;DHT22;52992;52.084;5.412;2024-02-04T09:57:50;14.40;72.20
66190;DHT22;52992;52.084;5.412;2024-02-04T10:00:19;14.50;72.20
66190;DHT22;52992;52.084;5.412;2024-02-04T10:02:49;14.50;72.10
66190;DHT22;52992;52.084;5.412;2024-02-04T10:05:16;14.50;72.00
66190;DHT22;52992;52.084;5.412;2024-02-04T10:07:43;14.50;72.00
66190;DHT22;52992;52.084;5.412;2024-02-04T10:10:11;14.50;72.00
66190;DHT22;52992;52.084;5.412;2024-02-04T10:12:39;14.60;72.00
66190;DHT22;52992;52.084;5.412;2024-02-04T10:15:10;14.60;71.60
66190;DHT22;52992;52.084;5.412;2024-02-04T10:17:42;14.60;71.60
66190;DHT22;52992;52.084;5.412;2024-02-04T10:20:10;14.60;71.40
66190;DHT22;52992;52.084;5.412;2024-02-04T10:22:37;14.60;71.60
66190;DHT22;52992;52.084;5.412;2024-02-04T10:25:10;14.60;71.20
66190;DHT22;52992;52.084;5.412;2024-02-04T10:27:42;14.60;71.20
66190;DHT22;52992;52.084;5.412;2024-02-04T10:30:09;14.50;71.20
66190;DHT22;52992;52.084;5.412;2024-02-04T10:32:37;14.60;71.40
66190;DHT22;52992;52.084;5.412;2024-02-04T10:35:04;14.60;70.90
66190;DHT22;52992;52.084;5.412;2024-02-04T10:37:31;14.60;70.70
66190;DHT22;52992;52.084;5.412;2024-02-04T10:39:58;14.50;70.80
66190;DHT22;52992;52.084;5.412;2024-02-04T10:42:27;14.60;70.80
66190;DHT22;52992;52.084;5.412;2024-02-04T10:44:55;14.70;70.60
66190;DHT22;52992;52.084;5.412;2024-02-04T10:47:29;14.80;70.20
66190;DHT22;52992;52.084;5.412;2024-02-04T10:49:58;14.80;70.10
66190;DHT22;52992;52.084;5.412;2024-02-04T10:52:28;14.90;70.00
66190;DHT22;52992;52.084;5.412;2024-02-04T10:55:00;14.90;69.80
66190;DHT22;52992;52.084;5.412;2024-02-04T10:57:27;14.90;69.50
66190;DHT22;52992;52.084;5.412;2024-02-04T10:59:54;14.80;69.40
66190;DHT22;52992;52.084;5.412;2024-02-04T11:02:21;14.80;69.70
66190;DHT22;52992;52.084;5.412;2024-02-04T11:04:49;14.80;69.70
66190;DHT22;52992;52.084;5.412;2024-02-04T11:07:20;14.80;69.90
66190;DHT22;52992;52.084;5.412;2024-02-04T11:09:48;14.90;69.90
66190;DHT22;52992;52.084;5.412;2024-02-04T11:12:18;14.80;69.70
66190;DHT22;52992;52.084;5.412;2024-02-04T11:14:50;14.80;70.00
66190;DHT22;52992;52.084;5.412;2024-02-04T11:17:28;14.90;70.00
66190;DHT22;52992;52.084;5.412;2024-02-04T11:25:52;14.90;70.60
66190;DHT22;52992;52.084;5.412;2024-02-04T11:28:24;14.90;70.80
66190;DHT22;52992;52.084;5.412;2024-02-04T11:30:55;14.90;70.60
66190;DHT22;52992;52.084;5.412;2024-02-04T11:33:23;14.90;70.90
66190;DHT22;52992;52.084;5.412;2024-02-04T11:36:05;14.90;71.10
66190;DHT22;52992;52.084;5.412;2024-02-04T11:38:37;14.90;71.30
66190;DHT22;52992;52.084;5.412;2024-02-04T11:41:06;14.90;71.00
66190;DHT22;52992;52.084;5.412;2024-02-04T11:43:34;14.90;71.30
66190;DHT22;52992;52.084;5.412;2024-02-04T11:46:05;14.90;71.50
66190;DHT22;52992;52.084;5.412;2024-02-04T11:48:34;14.90;71.80
66190;DHT22;52992;52.084;5.412;2024-02-04T11:51:03;14.80;71.70
66190;DHT22;52992;52.084;5.412;2024-02-04T11:53:31;14.80;71.70
66190;DHT22;52992;52.084;5.412;2024-02-04T11:56:03;14.80;71.80
66190;DHT22;52992;52.084;5.412;2024-02-04T11:58:31;14.90;71.90
66190;DHT22;52992;52.084;5.412;2024-02-04T12:00:59;14.90;72.00
66190;DHT22;52992;52.084;5.412;2024-02-04T12:03:32;14.90;72.60
66190;DHT22;52992;52.084;5.412;2024-02-04T12:05:59;14.90;71.90
66190;DHT22;52992;52.084;5.412;2024-02-04T12:08:28;14.80;72.00
66190;DHT22;52992;52.084;5.412;2024-02-04T12:10:55;14.80;72.10
66190;DHT22;52992;52.084;5.412;2024-02-04T12:13:23;14.90;72.00
66190;DHT22;52992;52.084;5.412;2024-02-04T12:15:51;14.90;72.00
66190;DHT22;52992;52.084;5.412;2024-02-04T12:18:18;14.80;72.00
66190;DHT22;52992;52.084;5.412;2024-02-04T12:20:47;14.80;72.10
66190;DHT22;52992;52.084;5.412;2024-02-04T12:23:18;14.80;72.20
66190;DHT22;52992;52.084;5.412;2024-02-04T12:25:48;14.90;72.40
66190;DHT22;52992;52.084;5.412;2024-02-04T12:28:15;14.90;72.00
66190;DHT22;52992;52.084;5.412;2024-02-04T12:30:55;14.90;72.20
66190;DHT22;52992;52.084;5.412;2024-02-04T12:33:22;14.80;72.00
66190;DHT22;52992;52.084;5.412;2024-02-04T12:35:52;14.90;71.90
66190;DHT22;52992;52.084;5.412;2024-02-04T12:38:22;14.90;72.10
66190;DHT22;52992;52.084;5.412;2024-02-04T12:40:49;14.90;71.90
66190;DHT22;52992;52.084;5.412;2024-02-04T12:43:17;14.80;71.90
66190;DHT22;52992;52.084;5.412;2024-02-04T12:45:44;14.80;72.10
66190;DHT22;52992;52.084;5.412;2024-02-04T12:48:15;14.70;72.30
66190;DHT22;52992;52.084;5.412;2024-02-04T12:50:42;14.70;72.30
66190;DHT22;52992;52.084;5.412;2024-02-04T12:53:09;14.70;72.40
66190;DHT22;52992;52.084;5.412;2024-02-04T12:55:40;14.70;72.20
66190;DHT22;52992;52.084;5.412;2024-02-04T12:58:11;14.70;72.30
66190;DHT22;52992;52.084;5.412;2024-02-04T13:00:39;14.70;72.30
66190;DHT22;52992;52.084;5.412;2024-02-04T13:03:07;14.70;72.30
66190;DHT22;52992;52.084;5.412;2024-02-04T13:05:36;14.70;72.50
66190;DHT22;52992;52.084;5.412;2024-02-04T13:08:04;14.70;72.50
66190;DHT22;52992;52.084;5.412;2024-02-04T13:10:34;14.60;72.20
66190;DHT22;52992;52.084;5.412;2024-02-04T13:13:06;14.60;72.40
66190;DHT22;52992;52.084;5.412;2024-02-04T13:18:07;14.60;72.60
66190;DHT22;52992;52.084;5.412;2024-02-04T13:20:35;14.70;72.40
66190;DHT22;52992;52.084;5.412;2024-02-04T13:23:02;14.60;72.50
66190;DHT22;52992;52.084;5.412;2024-02-04T13:25:32;14.70;72.40
66190;DHT22;52992;52.084;5.412;2024-02-04T13:27:59;14.70;72.00
66190;DHT22;52992;52.084;5.412;2024-02-04T13:30:27;14.70;72.00
66190;DHT22;52992;52.084;5.412;2024-02-04T13:32:54;14.70;72.10
66190;DHT22;52992;52.084;5.412;2024-02-04T13:35:23;14.80;72.10
66190;DHT22;52992;52.084;5.412;2024-02-04T13:37:50;14.80;72.10
66190;DHT22;52992;52.084;5.412;2024-02-04T13:40:19;14.80;71.80
66190;DHT22;52992;52.084;5.412;2024-02-04T13:42:47;14.80;71.50
66190;DHT22;52992;52.084;5.412;2024-02-04T13:45:14;14.80;71.60
66190;DHT22;52992;52.084;5.412;2024-02-04T13:47:41;14.70;71.70
66190;DHT22;52992;52.084;5.412;2024-02-04T13:50:12;14.70;72.10
66190;DHT22;52992;52.084;5.412;2024-02-04T13:52:40;14.70;71.90
66190;DHT22;52992;52.084;5.412;2024-02-04T13:55:07;14.70;71.90
66190;DHT22;52992;52.084;5.412;2024-02-04T13:57:35;14.60;71.90
66190;DHT22;52992;52.084;5.412;2024-02-04T14:00:03;14.70;71.80
66190;DHT22;52992;52.084;5.412;2024-02-04T14:02:34;14.70;71.70
66190;DHT22;52992;52.084;5.412;2024-02-04T14:05:01;14.80;71.20
66190;DHT22;52992;52.084;5.412;2024-02-04T14:07:29;14.70;71.40
66190;DHT22;52992;52.084;5.412;2024-02-04T14:09:56;14.70;71.50
66190;DHT22;52992;52.084;5.412;2024-02-04T14:12:23;14.70;71.50
66190;DHT22;52992;52.084;5.412;2024-02-04T14:14:50;14.70;71.70
66190;DHT22;52992;52.084;5.412;2024-02-04T14:17:17;14.70;71.60
66190;DHT22;52992;52.084;5.412;2024-02-04T14:19:45;14.70;71.50
66190;DHT22;52992;52.084;5.412;2024-02-04T14:22:16;14.60;71.50
66190;DHT22;52992;52.084;5.412;2024-02-04T14:24:46;14.60;71.50
66190;DHT22;52992;52.084;5.412;2024-02-04T14:27:13;14.60;71.70
66190;DHT22;52992;52.084;5.412;2024-02-04T14:29:40;14.60;71.80
66190;DHT22;52992;52.084;5.412;2024-02-04T14:32:08;14.60;71.80
66190;DHT22;52992;52.084;5.412;2024-02-04T14:34:35;14.60;71.70
66190;DHT22;52992;52.084;5.412;2024-02-04T14:37:02;14.60;71.50
66190;DHT22;52992;52.084;5.412;2024-02-04T14:39:30;14.60;71.50
66190;DHT22;52992;52.084;5.412;2024-02-04T14:41:58;14.70;71.20
66190;DHT22;52992;52.084;5.412;2024-02-04T14:44:25;14.70;71.20
66190;DHT22;52992;52.084;5.412;2024-02-04T14:46:52;14.70;71.10
66190;DHT22;52992;52.084;5.412;2024-02-04T14:49:19;14.70;70.80
66190;DHT22;52992;52.084;5.412;2024-02-04T14:51:46;14.70;70.90
66190;DHT22;52992;52.084;5.412;2024-02-04T14:54:14;14.70;71.00
66190;DHT22;52992;52.084;5.412;2024-02-04T14:56:41;14.80;70.90
66190;DHT22;52992;52.084;5.412;2024-02-04T14:59:10;14.80;70.80
66190;DHT22;52992;52.084;5.412;2024-02-04T15:01:48;14.80;70.50
66190;DHT22;52992;52.084;5.412;2024-02-04T15:04:16;14.90;71.20
66190;DHT22;52992;52.084;5.412;2024-02-04T15:06:44;14.90;70.30
66190;DHT22;52992;52.084;5.412;2024-02-04T15:09:11;14.90;70.40
66190;DHT22;52992;52.084;5.412;2024-02-04T15:11:38;14.80;71.20
66190;DHT22;52992;52.084;5.412;2024-02-04T15:14:06;14.90;70.40
66190;DHT22;52992;52.084;5.412;2024-02-04T15:16:35;14.90;70.60
66190;DHT22;52992;52.084;5.412;2024-02-04T15:19:06;14.90;70.50
66190;DHT22;52992;52.084;5.412;2024-02-04T15:21:34;15.00;70.40
66190;DHT22;52992;52.084;5.412;2024-02-04T15:24:02;15.00;69.90
66190;DHT22;52992;52.084;5.412;2024-02-04T15:26:35;15.00;70.00
66190;DHT22;52992;52.084;5.412;2024-02-04T15:29:07;15.00;69.80
66190;DHT22;52992;52.084;5.412;2024-02-04T15:31:35;14.90;69.90
66190;DHT22;52992;52.084;5.412;2024-02-04T15:34:03;14.90;70.10
66190;DHT22;52992;52.084;5.412;2024-02-04T15:36:32;14.80;70.10
66190;DHT22;52992;52.084;5.412;2024-02-04T15:38:59;14.80;70.30
66190;DHT22;52992;52.084;5.412;2024-02-04T15:41:29;14.80;70.20
66190;DHT22;52992;52.084;5.412;2024-02-04T15:43:56;14.80;70.20
66190;DHT22;52992;52.084;5.412;2024-02-04T15:46:23;14.80;70.20
66190;DHT22;52992;52.084;5.412;2024-02-04T15:48:52;14.80;70.00
66190;DHT22;52992;52.084;5.412;2024-02-04T15:51:20;14.80;70.10